createdAt,value
2022-10-22T00:01:00.136Z,2.70
2022-10-22T00:03:26.641Z,2.63
2022-10-22T00:05:53.158Z,2.28
2022-10-22T00:08:19.738Z,2.58
2022-10-22T00:10:46.227Z,2.35
2022-10-22T00:13:13.204Z,2.65
2022-10-22T00:15:39.786Z,2.22
2022-10-22T00:18:06.370Z,2.30
2022-10-22T00:20:32.961Z,2.22
2022-10-22T00:22:59.544Z,2.63
2022-10-22T00:25:26.015Z,2.42
2022-10-22T00:27:52.586Z,2.85
2022-10-22T00:30:19.299Z,2.25
2022-10-22T00:32:45.848Z,2.50
2022-10-22T00:35:12.339Z,2.40
2022-10-22T00:37:38.965Z,2.85
2022-10-22T00:40:05.983Z,2.70
2022-10-22T00:42:32.481Z,3.70
2022-10-22T00:45:11.308Z,2.60
2022-10-22T00:47:43.748Z,2.78
2022-10-22T00:50:29.709Z,2.65
2022-10-22T00:52:56.981Z,2.90
2022-10-22T00:55:24.414Z,2.72
2022-10-22T00:57:52.435Z,2.95
2022-10-22T01:00:19.033Z,2.80
2022-10-22T01:02:45.649Z,2.63
2022-10-22T01:05:12.232Z,2.97
2022-10-22T01:07:43.555Z,2.75
2022-10-22T01:10:24.972Z,3.35
2022-10-22T01:12:57.360Z,2.47
2022-10-22T01:15:32.503Z,2.80
2022-10-22T01:18:12.486Z,2.40
2022-10-22T01:20:41.985Z,3.45
2022-10-22T01:23:14.404Z,2.60
2022-10-22T01:25:59.611Z,2.67
2022-10-22T01:28:44.578Z,2.60
2022-10-22T01:31:12.757Z,2.95
2022-10-22T01:33:40.117Z,2.70
2022-10-22T01:36:07.496Z,2.33
2022-10-22T01:38:34.033Z,2.83
2022-10-22T01:41:01.088Z,2.80
2022-10-22T01:43:27.581Z,3.17
2022-10-22T01:45:56.368Z,2.50
2022-10-22T01:48:35.561Z,2.70
2022-10-22T01:51:04.862Z,3.00
2022-10-22T01:53:31.351Z,2.65
2022-10-22T01:56:17.643Z,2.58
2022-10-22T01:58:58.333Z,3.10
2022-10-22T02:01:45.084Z,2.60
2022-10-22T02:04:15.454Z,2.40
2022-10-22T02:06:44.133Z,2.45
2022-10-22T02:09:11.536Z,2.75
2022-10-22T02:11:38.284Z,2.95
2022-10-22T02:14:05.363Z,2.63
2022-10-22T02:16:33.935Z,2.65
2022-10-22T02:19:02.111Z,3.05
2022-10-22T02:21:28.677Z,2.45
2022-10-22T02:23:55.223Z,3.03
2022-10-22T02:26:33.632Z,2.92
2022-10-22T02:29:08.863Z,2.90
2022-10-22T02:31:36.988Z,2.70
2022-10-22T02:34:05.318Z,2.80
2022-10-22T02:36:32.218Z,2.60
2022-10-22T02:38:59.193Z,2.78
2022-10-22T02:41:25.781Z,2.92
2022-10-22T02:43:54.368Z,2.75
2022-10-22T02:46:21.204Z,2.90
2022-10-22T02:48:47.796Z,2.50
2022-10-22T02:51:14.511Z,2.95
2022-10-22T02:53:41.053Z,2.58
2022-10-22T02:56:07.999Z,2.80
2022-10-22T02:58:34.537Z,2.20
2022-10-22T03:01:01.109Z,2.65
2022-10-22T03:03:27.716Z,2.97
2022-10-22T03:05:54.347Z,2.55
2022-10-22T03:08:20.883Z,2.42
2022-10-22T03:10:47.394Z,2.10
2022-10-22T03:13:14.084Z,2.60
2022-10-22T03:15:40.563Z,2.20
2022-10-22T03:18:07.111Z,2.30
2022-10-22T03:20:33.646Z,2.55
2022-10-22T03:23:00.993Z,2.15
2022-10-22T03:25:27.918Z,2.05
2022-10-22T03:27:56.955Z,2.22
2022-10-22T03:30:23.469Z,1.80
2022-10-22T03:32:49.980Z,2.05
2022-10-22T03:35:16.526Z,2.42
2022-10-22T03:37:43.288Z,1.58
2022-10-22T03:40:11.549Z,2.05
2022-10-22T03:42:38.235Z,1.75
2022-10-22T03:45:05.423Z,2.40
2022-10-22T03:47:31.955Z,2.25
2022-10-22T03:49:58.524Z,2.70
2022-10-22T03:52:25.036Z,2.17
2022-10-22T03:54:51.601Z,1.73
2022-10-22T03:57:18.126Z,2.03
2022-10-22T03:59:45.416Z,1.90
2022-10-22T04:02:12.377Z,2.33
2022-10-22T04:04:39.064Z,1.95
2022-10-22T04:07:06.494Z,1.83
2022-10-22T04:09:33.872Z,1.77
2022-10-22T04:12:00.542Z,1.65
2022-10-22T04:14:27.179Z,2.08
2022-10-22T04:16:53.816Z,2.50
2022-10-22T04:19:20.534Z,1.90
2022-10-22T04:21:47.106Z,2.00
2022-10-22T04:24:13.602Z,1.65
2022-10-22T04:26:40.096Z,1.42
2022-10-22T04:29:06.977Z,1.38
2022-10-22T04:31:34.266Z,1.88
2022-10-22T04:34:01.302Z,1.48
2022-10-22T04:36:28.456Z,1.63
2022-10-22T04:38:56.350Z,1.55
2022-10-22T04:41:24.209Z,1.63
2022-10-22T04:46:17.966Z,1.67
2022-10-22T04:48:45.018Z,1.23
2022-10-22T04:51:12.648Z,1.40
2022-10-22T04:53:40.552Z,1.60
2022-10-22T04:56:08.364Z,1.58
2022-10-22T04:58:35.029Z,1.75
2022-10-22T05:01:01.702Z,1.60
2022-10-22T05:03:28.250Z,1.38
2022-10-22T05:05:54.724Z,1.50
2022-10-22T05:08:21.312Z,1.48
2022-10-22T05:10:47.784Z,1.98
2022-10-22T05:13:14.323Z,1.42
2022-10-22T05:15:40.811Z,0.90
2022-10-22T05:18:07.306Z,1.00
2022-10-22T05:20:33.850Z,1.17
2022-10-22T05:23:00.397Z,1.00
2022-10-22T05:25:26.887Z,1.30
2022-10-22T05:27:56.140Z,1.13
2022-10-22T05:30:24.885Z,0.88
2022-10-22T05:32:52.442Z,1.25
2022-10-22T05:35:19.074Z,1.10
2022-10-22T05:37:45.566Z,0.98
2022-10-22T05:40:19.253Z,1.05
2022-10-22T05:42:53.328Z,0.80
2022-10-22T05:45:19.862Z,0.90
2022-10-22T05:47:46.466Z,1.10
2022-10-22T05:50:12.967Z,1.20
2022-10-22T05:52:39.743Z,1.38
2022-10-22T05:55:06.618Z,0.80
2022-10-22T05:57:33.148Z,0.80
2022-10-22T05:59:59.628Z,0.93
2022-10-22T06:02:26.190Z,1.35
2022-10-22T06:04:52.711Z,1.05
2022-10-22T06:07:19.278Z,0.80
2022-10-22T06:09:47.665Z,1.05
2022-10-22T06:12:14.204Z,0.88
2022-10-22T06:14:40.741Z,1.02
2022-10-22T06:17:07.279Z,0.70
2022-10-22T06:19:33.780Z,0.95
2022-10-22T06:22:00.330Z,0.82
2022-10-22T06:24:26.834Z,0.82
2022-10-22T06:26:53.444Z,0.90
2022-10-22T06:29:20.146Z,1.35
2022-10-22T06:31:46.758Z,1.13
2022-10-22T06:34:13.768Z,0.80
2022-10-22T06:36:42.714Z,0.97
2022-10-22T06:39:11.812Z,0.93
2022-10-22T06:41:38.330Z,1.02
2022-10-22T06:44:05.012Z,1.02
2022-10-22T06:46:32.203Z,0.90
2022-10-22T06:48:59.939Z,1.17
2022-10-22T06:51:27.541Z,1.10
2022-10-22T06:53:54.793Z,1.40
2022-10-22T06:56:22.666Z,0.60
2022-10-22T06:58:49.970Z,0.93
2022-10-22T07:01:17.976Z,1.08
2022-10-22T07:03:44.537Z,1.00
2022-10-22T07:06:12.490Z,0.90
2022-10-22T07:11:25.728Z,2.72
2022-10-22T07:13:53.846Z,1.08
2022-10-22T07:16:20.399Z,0.88
2022-10-22T07:18:47.341Z,1.23
2022-10-22T07:21:15.056Z,0.80
2022-10-22T07:23:41.615Z,0.88
2022-10-22T07:26:08.792Z,0.70
2022-10-22T07:28:38.011Z,0.70
2022-10-22T07:31:04.731Z,0.70
2022-10-22T07:33:31.233Z,1.10
2022-10-22T07:36:01.860Z,0.80
2022-10-22T07:38:29.054Z,1.10
2022-10-22T07:40:55.592Z,1.10
2022-10-22T07:43:22.270Z,0.80
2022-10-22T07:45:48.812Z,0.60
2022-10-22T07:48:15.578Z,1.00
2022-10-22T07:53:14.025Z,1.35
2022-10-22T07:55:40.512Z,0.75
2022-10-22T07:58:07.125Z,1.10
2022-10-22T08:00:33.690Z,0.88
2022-10-22T08:03:00.515Z,0.90
2022-10-22T08:05:26.997Z,0.60
2022-10-22T08:07:53.526Z,1.10
2022-10-22T08:10:20.063Z,1.08
2022-10-22T08:12:46.592Z,0.85
2022-10-22T08:15:13.478Z,1.10
2022-10-22T08:17:40.404Z,0.80
2022-10-22T08:20:07.429Z,0.60
2022-10-22T08:22:33.948Z,0.60
2022-10-22T08:25:00.560Z,0.60
2022-10-22T08:27:27.167Z,0.73
2022-10-22T08:29:53.713Z,0.50
2022-10-22T08:32:20.214Z,0.93
2022-10-22T08:34:46.786Z,0.70
2022-10-22T08:37:14.454Z,0.75
2022-10-22T08:39:41.448Z,0.68
2022-10-22T08:42:27.341Z,0.50
2022-10-22T08:45:09.260Z,0.73
2022-10-22T08:47:42.774Z,0.75
2022-10-22T08:50:11.396Z,0.68
2022-10-22T08:52:40.624Z,0.60
2022-10-22T08:55:12.532Z,0.45
2022-10-22T08:57:54.286Z,0.70
2022-10-22T09:00:36.324Z,0.80
2022-10-22T09:03:23.121Z,0.73
2022-10-22T09:05:55.554Z,0.73
2022-10-22T09:08:23.027Z,0.60
2022-10-22T09:10:52.271Z,0.55
2022-10-22T09:13:20.181Z,0.60
2022-10-22T09:18:22.782Z,1.00
2022-10-22T09:20:56.644Z,1.00
2022-10-22T09:23:45.766Z,0.88
2022-10-22T09:26:13.889Z,0.85
2022-10-22T09:28:40.524Z,0.90
2022-10-22T09:31:14.014Z,0.30
2022-10-22T09:33:41.620Z,0.88
2022-10-22T09:36:08.303Z,0.40
2022-10-22T09:38:44.860Z,0.82
2022-10-22T09:41:11.899Z,0.80
2022-10-22T09:43:38.379Z,0.70
2022-10-22T09:46:06.318Z,0.70
2022-10-22T09:48:39.136Z,0.70
2022-10-22T09:51:05.846Z,1.05
2022-10-22T09:53:36.657Z,0.80
2022-10-22T09:56:07.256Z,0.63
2022-10-22T09:58:51.929Z,1.00
2022-10-22T10:01:20.154Z,0.90
2022-10-22T10:03:47.810Z,0.70
2022-10-22T10:06:17.486Z,0.80
2022-10-22T10:08:44.066Z,0.80
2022-10-22T10:11:10.537Z,1.30
2022-10-22T10:13:45.871Z,1.02
2022-10-22T10:16:24.305Z,0.82
2022-10-22T10:19:09.383Z,0.80
2022-10-22T10:21:41.268Z,0.80
2022-10-22T10:24:22.385Z,1.25
2022-10-22T10:26:56.727Z,1.10
2022-10-22T10:29:23.389Z,0.60
2022-10-22T10:31:49.981Z,0.80
2022-10-22T10:34:29.863Z,0.52
2022-10-22T10:37:05.695Z,1.33
2022-10-22T10:39:35.509Z,0.55
2022-10-22T10:42:02.032Z,1.20
2022-10-22T10:44:31.374Z,0.80
2022-10-22T10:47:09.871Z,0.60
2022-10-22T10:49:36.858Z,0.70
2022-10-22T10:52:06.221Z,0.87
2022-10-22T10:54:41.573Z,0.70
2022-10-22T10:57:11.123Z,1.50
2022-10-22T10:59:46.664Z,0.70
2022-10-22T11:02:22.149Z,0.90
2022-10-22T11:05:07.509Z,1.38
2022-10-22T11:07:40.319Z,0.80
2022-10-22T11:10:25.056Z,0.90
2022-10-22T11:12:53.466Z,0.50
2022-10-22T11:15:45.953Z,1.35
2022-10-22T11:18:28.952Z,1.23
2022-10-22T11:21:01.404Z,0.80
2022-10-22T11:23:32.810Z,0.60
2022-10-22T11:26:00.382Z,0.90
2022-10-22T11:28:33.593Z,0.77
2022-10-22T11:31:04.641Z,0.50
2022-10-22T11:33:45.979Z,1.85
2022-10-22T11:36:12.980Z,1.63
2022-10-22T11:38:39.601Z,1.38
2022-10-22T11:41:13.601Z,1.10
2022-10-22T11:44:12.801Z,0.90
2022-10-22T11:46:47.053Z,1.15
2022-10-22T11:49:13.542Z,0.80
2022-10-22T11:51:41.504Z,0.90
2022-10-22T11:54:26.445Z,0.50
2022-10-22T11:56:57.642Z,0.90
2022-10-22T11:59:50.259Z,0.80
2022-10-22T12:02:23.840Z,0.80
2022-10-22T12:04:50.466Z,0.77
2022-10-22T12:07:33.604Z,0.80
2022-10-22T12:10:00.347Z,0.90
2022-10-22T12:12:28.861Z,1.00
2022-10-22T12:14:57.756Z,0.90
2022-10-22T12:17:24.937Z,0.70
2022-10-22T12:19:58.504Z,1.00
2022-10-22T12:22:29.269Z,0.90
2022-10-22T12:24:59.378Z,1.05
2022-10-22T12:27:27.215Z,0.77
2022-10-22T12:32:21.094Z,0.90
2022-10-22T12:37:20.200Z,0.70
2022-10-22T12:39:47.005Z,0.80
2022-10-22T12:42:18.295Z,1.07
2022-10-22T12:44:45.127Z,0.60
2022-10-22T12:47:18.380Z,0.70
2022-10-22T12:49:47.592Z,0.50
2022-10-22T12:52:16.825Z,0.65
2022-10-22T12:54:44.981Z,0.60
2022-10-22T12:57:13.459Z,1.15
2022-10-22T12:59:43.656Z,0.80
2022-10-22T13:02:21.518Z,0.88
2022-10-22T13:05:06.145Z,0.50
2022-10-22T13:07:39.467Z,0.80
2022-10-22T13:10:16.907Z,0.60
2022-10-22T13:15:33.548Z,0.50
2022-10-22T13:18:14.863Z,0.65
2022-10-22T13:20:51.667Z,0.70
2022-10-22T13:23:19.800Z,0.80
2022-10-22T13:25:56.100Z,0.65
2022-10-22T13:28:24.577Z,0.60
2022-10-22T13:31:01.511Z,0.60
2022-10-22T13:33:35.695Z,0.70
2022-10-22T13:36:02.522Z,0.60
2022-10-22T13:38:29.127Z,0.70
2022-10-22T13:40:56.115Z,0.60
2022-10-22T13:43:23.154Z,0.80
2022-10-22T13:45:53.173Z,0.65
2022-10-22T13:48:22.063Z,0.63
2022-10-22T13:50:49.249Z,1.13
2022-10-22T13:53:18.916Z,0.85
2022-10-22T13:55:45.810Z,0.63
2022-10-22T13:58:13.559Z,0.65
2022-10-22T14:00:42.329Z,0.82
2022-10-22T14:03:13.652Z,0.60
2022-10-22T14:05:40.248Z,0.93
2022-10-22T14:08:11.705Z,0.65
2022-10-22T14:10:38.277Z,0.70
2022-10-22T14:13:10.057Z,0.73
2022-10-22T14:15:36.700Z,0.68
2022-10-22T14:18:04.316Z,0.70
2022-10-22T14:20:31.992Z,0.95
2022-10-22T14:23:02.443Z,1.00
2022-10-22T14:25:31.477Z,0.60
2022-10-22T14:27:57.988Z,0.80
2022-10-22T14:30:25.238Z,0.50
2022-10-22T14:32:52.115Z,0.60
2022-10-22T14:35:20.439Z,0.60
2022-10-22T14:37:47.300Z,0.73
2022-10-22T14:40:15.218Z,0.63
2022-10-22T14:42:43.206Z,0.80
2022-10-22T14:45:21.100Z,0.80
2022-10-22T14:47:48.197Z,0.60
2022-10-22T14:50:14.868Z,0.50
2022-10-22T14:52:43.594Z,0.80
2022-10-22T14:55:11.045Z,0.68
2022-10-22T14:57:39.669Z,0.85
2022-10-22T15:00:08.148Z,0.65
2022-10-22T15:02:34.776Z,1.00
2022-10-22T15:05:01.287Z,0.85
2022-10-22T15:07:28.277Z,0.52
2022-10-22T15:09:54.855Z,0.68
2022-10-22T15:12:21.408Z,0.90
2022-10-22T15:14:48.102Z,0.80
2022-10-22T15:17:15.261Z,0.80
2022-10-22T15:19:43.510Z,0.60
2022-10-22T15:22:10.665Z,0.80
2022-10-22T15:24:37.644Z,0.90
2022-10-22T15:27:04.118Z,1.17
2022-10-22T15:29:31.114Z,1.30
2022-10-22T15:32:00.735Z,1.65
2022-10-22T15:34:31.652Z,1.30
2022-10-22T15:36:59.517Z,1.63
2022-10-22T15:39:26.524Z,2.42
2022-10-22T15:41:53.564Z,3.05
2022-10-22T15:44:21.440Z,4.63
2022-10-22T15:46:48.282Z,6.13
2022-10-22T15:49:14.932Z,4.63
2022-10-22T15:51:41.496Z,16.88
2022-10-22T15:54:12.732Z,37.40
2022-10-22T15:56:39.274Z,31.92
2022-10-22T15:59:05.941Z,23.10
2022-10-22T16:01:33.878Z,13.30
2022-10-22T16:04:02.601Z,11.90
2022-10-22T16:06:30.363Z,7.03
2022-10-22T16:11:23.819Z,3.50
2022-10-22T16:13:54.953Z,2.27
2022-10-22T16:16:21.737Z,2.50
2022-10-22T16:18:48.513Z,2.70
2022-10-22T16:21:15.052Z,2.35
2022-10-22T16:23:42.456Z,2.80
2022-10-22T16:26:09.073Z,2.40
2022-10-22T16:28:35.631Z,2.80
2022-10-22T16:31:04.863Z,2.88
2022-10-22T16:33:41.220Z,3.63
2022-10-22T16:36:10.193Z,3.10
2022-10-22T16:38:37.131Z,3.60
2022-10-22T16:41:07.602Z,4.20
2022-10-22T16:43:34.158Z,3.92
2022-10-22T16:46:00.664Z,4.50
2022-10-22T16:48:27.192Z,6.43
2022-10-22T16:50:53.695Z,6.40
2022-10-22T16:53:20.217Z,6.15
2022-10-22T16:55:46.826Z,7.80
2022-10-22T16:58:13.420Z,7.15
2022-10-22T17:00:39.919Z,8.48
2022-10-22T17:03:07.444Z,8.77
2022-10-22T17:05:35.720Z,9.15
2022-10-22T17:08:02.332Z,9.05
2022-10-22T17:10:28.860Z,9.02
2022-10-22T17:12:55.393Z,7.30
2022-10-22T17:15:21.923Z,7.28
2022-10-22T17:17:50.922Z,6.30
2022-10-22T17:20:18.301Z,6.63
2022-10-22T17:22:44.878Z,6.57
2022-10-22T17:25:11.408Z,6.38
2022-10-22T17:27:38.205Z,6.93
2022-10-22T17:30:06.395Z,13.70
2022-10-22T17:34:59.416Z,11.32
2022-10-22T17:37:25.920Z,8.35
2022-10-22T17:39:52.530Z,7.72
2022-10-22T17:42:19.135Z,12.65
2022-10-22T17:44:46.152Z,9.03
2022-10-22T17:47:12.637Z,7.10
2022-10-22T17:49:39.151Z,7.60
2022-10-22T17:52:05.672Z,7.15
2022-10-22T17:54:32.997Z,7.07
2022-10-22T17:56:59.645Z,7.45
2022-10-22T17:59:26.186Z,7.65
2022-10-22T18:01:56.894Z,10.20
2022-10-22T18:04:25.972Z,11.02
2022-10-22T18:06:52.475Z,10.70
2022-10-22T18:09:19.602Z,9.13
2022-10-22T18:11:46.689Z,8.98
2022-10-22T18:14:13.196Z,7.80
2022-10-22T18:16:39.766Z,7.80
2022-10-22T18:19:06.286Z,7.55
2022-10-22T18:21:32.827Z,7.93
2022-10-22T18:23:59.644Z,8.25
2022-10-22T18:26:27.054Z,8.13
2022-10-22T18:28:53.934Z,7.50
2022-10-22T18:31:21.423Z,8.48
2022-10-22T18:33:48.116Z,8.85
2022-10-22T18:36:15.933Z,11.07
2022-10-22T18:41:10.087Z,10.35
2022-10-22T18:43:36.605Z,9.95
2022-10-22T18:46:05.539Z,9.45
2022-10-22T18:48:32.002Z,10.50
2022-10-22T18:51:02.320Z,21.70
2022-10-22T18:53:29.308Z,39.30
2022-10-22T18:55:56.532Z,10.77
2022-10-22T18:58:23.140Z,10.27
2022-10-22T19:00:50.702Z,9.20
2022-10-22T19:03:17.546Z,9.07
2022-10-22T19:05:46.231Z,10.20
2022-10-22T19:08:12.826Z,10.65
2022-10-22T19:10:39.462Z,13.38
2022-10-22T19:13:06.133Z,16.13
2022-10-22T19:15:32.662Z,21.90
2022-10-22T19:17:59.158Z,14.25
2022-10-22T19:20:25.770Z,11.32
2022-10-22T19:22:53.443Z,11.07
2022-10-22T19:25:20.039Z,11.77
2022-10-22T19:27:47.505Z,14.18
2022-10-22T19:30:14.771Z,16.77
2022-10-22T19:32:41.583Z,13.65
2022-10-22T19:35:08.542Z,10.73
2022-10-22T19:37:35.147Z,10.77
2022-10-22T19:40:01.632Z,11.98
2022-10-22T19:42:28.187Z,11.07
2022-10-22T19:44:54.731Z,10.48
2022-10-22T19:47:21.928Z,9.73
2022-10-22T19:49:48.423Z,9.60
2022-10-22T19:52:14.991Z,9.70
2022-10-22T19:54:44.568Z,8.38
2022-10-22T19:57:14.288Z,9.75
2022-10-22T19:59:40.965Z,10.20
2022-10-22T20:02:18.331Z,10.27
2022-10-22T20:04:49.202Z,11.50
2022-10-22T20:07:16.844Z,10.80
2022-10-22T20:09:43.383Z,9.63
2022-10-22T20:12:09.840Z,10.82
2022-10-22T20:14:37.486Z,10.77
2022-10-22T20:17:04.131Z,10.30
2022-10-22T20:19:30.804Z,9.93
2022-10-22T20:24:23.920Z,12.57
2022-10-22T20:26:50.434Z,44.97
2022-10-22T20:29:19.091Z,11.80
2022-10-22T20:31:46.273Z,15.85
2022-10-22T20:34:12.995Z,11.07
2022-10-22T20:36:39.773Z,12.30
2022-10-22T20:39:07.962Z,10.98
2022-10-22T20:41:35.132Z,9.32
2022-10-22T20:44:01.899Z,9.75
2022-10-22T20:46:30.236Z,9.20
2022-10-22T20:48:58.814Z,9.07
2022-10-22T20:51:25.431Z,8.60
2022-10-22T20:53:51.928Z,9.60
2022-10-22T20:56:19.094Z,8.95
2022-10-22T20:58:49.188Z,8.55
2022-10-22T21:01:22.209Z,8.80
2022-10-22T21:03:49.477Z,9.40
2022-10-22T21:06:16.038Z,8.02
2022-10-22T21:08:43.572Z,8.20
2022-10-22T21:11:10.199Z,7.60
2022-10-22T21:13:36.748Z,8.15
2022-10-22T21:16:06.892Z,7.68
2022-10-22T21:18:33.563Z,7.97
2022-10-22T21:21:00.056Z,7.80
2022-10-22T21:23:26.568Z,6.82
2022-10-22T21:25:53.955Z,8.02
2022-10-22T21:28:20.479Z,7.55
2022-10-22T21:30:47.152Z,28.30
2022-10-22T21:33:13.888Z,8.38
2022-10-22T21:35:40.438Z,7.20
2022-10-22T21:38:07.966Z,7.35
2022-10-22T21:40:37.480Z,6.78
2022-10-22T21:43:04.067Z,7.30
2022-10-22T21:45:30.535Z,6.13
2022-10-22T21:47:57.234Z,6.72
2022-10-22T21:50:23.740Z,5.57
2022-10-22T21:52:50.255Z,6.05
2022-10-22T21:55:17.211Z,6.20
2022-10-22T21:57:44.043Z,6.40
2022-10-22T22:00:11.378Z,5.88
2022-10-22T22:02:45.386Z,5.70
2022-10-22T22:05:11.956Z,6.35
2022-10-22T22:07:38.951Z,6.20
2022-10-22T22:10:05.927Z,6.27
2022-10-22T22:12:32.446Z,6.10
2022-10-22T22:14:59.007Z,5.78
2022-10-22T22:17:25.579Z,5.57
2022-10-22T22:19:52.061Z,5.68
2022-10-22T22:22:18.543Z,5.57
2022-10-22T22:24:45.094Z,5.40
2022-10-22T22:27:11.636Z,6.22
2022-10-22T22:29:38.216Z,5.18
2022-10-22T22:32:04.819Z,40.83
2022-10-22T22:34:31.311Z,6.25
2022-10-22T22:36:57.831Z,5.50
2022-10-22T22:39:24.436Z,5.65
2022-10-22T22:41:51.499Z,6.25
2022-10-22T22:44:18.278Z,6.00
2022-10-22T22:46:44.826Z,5.75
2022-10-22T22:49:12.324Z,5.35
2022-10-22T22:51:38.867Z,5.47
2022-10-22T22:54:05.405Z,5.80
2022-10-22T22:56:34.253Z,5.43
2022-10-22T22:59:01.172Z,6.30
2022-10-22T23:01:32.149Z,6.43
2022-10-22T23:04:30.189Z,5.80
2022-10-22T23:06:56.822Z,4.80
2022-10-22T23:09:23.402Z,5.20
2022-10-22T23:11:50.747Z,5.32
2022-10-22T23:14:18.087Z,4.80
2022-10-22T23:16:46.602Z,4.82
2022-10-22T23:19:14.550Z,4.85
2022-10-22T23:24:09.207Z,4.90
2022-10-22T23:26:37.525Z,4.68
2022-10-22T23:29:08.396Z,4.90
2022-10-22T23:31:34.922Z,4.35
2022-10-22T23:34:01.436Z,4.93
2022-10-22T23:36:28.064Z,4.60
2022-10-22T23:38:54.686Z,4.78
2022-10-22T23:41:21.292Z,4.40
2022-10-22T23:43:47.780Z,4.90
2022-10-22T23:46:14.348Z,4.63
2022-10-22T23:48:40.856Z,4.55
2022-10-22T23:51:16.764Z,4.80
2022-10-22T23:53:44.372Z,4.85
2022-10-22T23:56:12.882Z,5.10
2022-10-22T23:58:39.406Z,5.00
